createdAt,value
2023-04-18T00:00:59.233Z,100.00
2023-04-18T00:06:02.235Z,100.00
2023-04-18T00:11:05.678Z,100.00
2023-04-18T00:16:08.594Z,100.00
2023-04-18T00:21:11.106Z,100.00
2023-04-18T00:26:14.588Z,100.00
2023-04-18T00:31:16.602Z,100.00
2023-04-18T00:36:18.553Z,100.00
2023-04-18T00:41:22.179Z,100.00
2023-04-18T00:46:24.141Z,100.00
2023-04-18T00:51:27.494Z,100.00
2023-04-18T00:56:30.767Z,100.00
2023-04-18T01:01:33.703Z,100.00
2023-04-18T01:06:36.820Z,100.00
2023-04-18T01:11:40.144Z,100.00
2023-04-18T01:16:42.333Z,100.00
2023-04-18T01:21:44.467Z,100.00
2023-04-18T01:26:48.091Z,100.00
2023-04-18T01:31:50.446Z,100.00
2023-04-18T01:36:52.485Z,100.00
2023-04-18T01:41:55.781Z,100.00
2023-04-18T01:46:57.913Z,100.00
2023-04-18T01:51:59.903Z,100.00
2023-04-18T01:57:03.389Z,100.00
2023-04-18T02:02:05.455Z,100.00
2023-04-18T02:07:07.529Z,100.00
2023-04-18T02:12:12.600Z,100.00
2023-04-18T02:17:14.602Z,99.92
2023-04-18T02:22:16.561Z,99.86
2023-04-18T02:27:19.872Z,99.85
2023-04-18T02:32:21.833Z,99.99
2023-04-18T02:37:23.851Z,100.00
2023-04-18T02:42:27.181Z,100.00
2023-04-18T02:47:30.390Z,100.00
2023-04-18T02:52:33.659Z,99.07
2023-04-18T02:57:36.954Z,98.69
2023-04-18T03:02:38.846Z,99.32
2023-04-18T03:07:40.805Z,97.27
2023-04-18T03:12:44.086Z,97.26
2023-04-18T03:17:46.027Z,96.87
2023-04-18T03:22:48.017Z,95.98
2023-04-18T03:27:51.304Z,96.47
2023-04-18T03:32:53.711Z,96.08
2023-04-18T03:37:55.630Z,95.19
2023-04-18T03:42:59.924Z,95.51
2023-04-18T03:48:02.161Z,93.46
2023-04-18T03:53:04.344Z,91.88
2023-04-18T03:58:07.815Z,92.63
2023-04-18T04:03:09.912Z,92.81
2023-04-18T04:08:12.077Z,91.64
2023-04-18T04:13:15.385Z,91.40
2023-04-18T04:18:17.355Z,91.01
2023-04-18T04:23:19.298Z,91.64
2023-04-18T04:28:23.168Z,90.99
2023-04-18T04:33:28.589Z,89.58
2023-04-18T04:38:30.984Z,89.69
2023-04-18T04:43:35.137Z,89.23
2023-04-18T04:48:37.090Z,88.06
2023-04-18T04:53:39.084Z,87.46
2023-04-18T04:58:42.470Z,87.42
2023-04-18T05:03:44.483Z,86.71
2023-04-18T05:08:46.565Z,87.75
2023-04-18T05:13:49.842Z,87.25
2023-04-18T05:54:10.474Z,91.59
2023-04-18T05:59:12.900Z,91.16
2023-04-18T06:04:15.350Z,91.18
2023-04-18T06:09:19.025Z,91.25
2023-04-18T06:14:20.962Z,91.16
2023-04-18T06:19:23.082Z,91.01
2023-04-18T06:24:26.407Z,92.11
2023-04-18T06:29:30.290Z,92.17
2023-04-18T06:34:32.254Z,92.72
2023-04-18T06:39:35.632Z,91.47
2023-04-18T06:44:37.703Z,91.87
2023-04-18T06:49:39.613Z,92.07
2023-04-18T06:54:42.918Z,90.12
2023-04-18T06:59:44.910Z,89.96
2023-04-18T07:04:47.221Z,90.29
2023-04-18T07:09:52.674Z,88.69
2023-04-18T07:14:55.021Z,88.30
2023-04-18T07:19:58.299Z,88.84
2023-04-18T07:25:01.550Z,84.34
2023-04-18T07:30:03.860Z,84.84
2023-04-18T07:35:06.244Z,82.63
2023-04-18T07:40:10.771Z,80.84
2023-04-18T07:45:12.740Z,79.96
2023-04-18T07:50:14.725Z,81.14
2023-04-18T07:55:18.398Z,79.67
2023-04-18T08:00:20.883Z,78.80
2023-04-18T08:05:22.920Z,77.07
2023-04-18T08:10:26.758Z,78.52
2023-04-18T08:15:29.117Z,76.65
2023-04-18T08:20:31.345Z,73.88
2023-04-18T08:25:36.209Z,70.72
2023-04-18T08:30:38.281Z,72.76
2023-04-18T08:35:40.852Z,71.37
2023-04-18T08:40:45.346Z,68.50
2023-04-18T08:45:48.387Z,67.77
2023-04-18T08:50:51.224Z,67.79
2023-04-18T08:55:56.242Z,66.84
2023-04-18T09:00:58.307Z,68.35
2023-04-18T09:06:08.264Z,63.99
2023-04-18T09:11:26.076Z,65.68
2023-04-18T09:16:29.235Z,68.73
2023-04-18T09:21:32.728Z,68.56
2023-04-18T09:26:36.405Z,66.69
2023-04-18T09:31:55.169Z,65.25
2023-04-18T09:37:08.827Z,65.71
2023-04-18T09:42:18.369Z,65.02
2023-04-18T09:47:27.025Z,64.94
2023-04-18T09:52:33.106Z,64.56
2023-04-18T09:57:40.578Z,65.03
2023-04-18T10:02:50.653Z,63.45
2023-04-18T10:07:54.350Z,64.25
2023-04-18T10:12:59.590Z,63.29
2023-04-18T10:18:06.938Z,62.92
2023-04-18T10:23:34.982Z,62.49
2023-04-18T10:28:53.301Z,62.55
2023-04-18T10:39:19.730Z,59.64
2023-04-18T10:44:23.682Z,55.69
2023-04-18T10:49:28.853Z,56.12
2023-04-18T10:54:38.061Z,55.04
2023-04-18T10:59:42.679Z,54.52
2023-04-18T11:04:49.765Z,54.38
2023-04-18T11:09:53.146Z,55.05
2023-04-18T11:14:56.861Z,54.11
2023-04-18T11:20:07.679Z,52.99
2023-04-18T11:25:10.843Z,52.70
2023-04-18T11:30:15.299Z,56.12
2023-04-18T11:35:17.626Z,54.33
2023-04-18T11:40:19.662Z,53.25
2023-04-18T11:45:22.982Z,56.22
2023-04-18T11:50:26.401Z,55.77
2023-04-18T11:55:28.433Z,56.84
2023-04-18T12:00:34.169Z,52.19
2023-04-18T12:05:37.984Z,51.67
2023-04-18T12:10:46.445Z,52.47
2023-04-18T12:15:49.858Z,52.26
2023-04-18T12:20:54.190Z,49.97
2023-04-18T12:25:59.529Z,50.96
2023-04-18T12:31:05.865Z,49.86
2023-04-18T12:36:10.399Z,49.58
2023-04-18T12:41:12.622Z,49.17
2023-04-18T12:46:16.114Z,49.59
2023-04-18T12:51:18.156Z,49.81
2023-04-18T12:56:21.024Z,49.88
2023-04-18T13:01:24.418Z,49.34
2023-04-18T13:06:26.439Z,49.17
2023-04-18T13:11:29.006Z,50.46
2023-04-18T13:16:32.381Z,49.46
2023-04-18T13:21:34.368Z,48.48
2023-04-18T13:26:37.532Z,46.44
2023-04-18T13:31:40.984Z,47.59
2023-04-18T13:36:43.124Z,46.28
2023-04-18T13:41:45.576Z,46.37
2023-04-18T13:46:48.938Z,47.05
2023-04-18T13:51:53.478Z,46.86
2023-04-18T13:56:59.581Z,48.12
2023-04-18T14:02:03.093Z,42.30
2023-04-18T14:07:06.282Z,43.90
2023-04-18T14:12:08.493Z,45.25
2023-04-18T14:17:11.899Z,45.53
2023-04-18T14:22:13.901Z,47.00
2023-04-18T14:27:15.859Z,45.08
2023-04-18T14:32:19.331Z,45.35
2023-04-18T14:37:22.243Z,42.72
2023-04-18T14:42:24.304Z,43.26
2023-04-18T14:47:34.263Z,43.80
2023-04-18T14:52:36.407Z,41.97
2023-04-18T14:57:39.302Z,43.02
2023-04-18T15:02:42.889Z,45.58
2023-04-18T15:07:45.139Z,42.07
2023-04-18T15:12:47.292Z,43.04
2023-04-18T15:17:50.664Z,44.66
2023-04-18T15:22:52.653Z,43.12
2023-04-18T15:27:54.609Z,41.21
2023-04-18T15:32:58.612Z,44.18
2023-04-18T15:38:00.784Z,42.22
2023-04-18T15:43:02.750Z,42.90
2023-04-18T15:48:06.776Z,42.81
2023-04-18T15:53:08.772Z,43.40
2023-04-18T15:58:10.897Z,42.66
2023-04-18T16:03:14.252Z,42.93
2023-04-18T16:08:16.559Z,43.43
2023-04-18T16:13:18.639Z,43.56
2023-04-18T16:18:22.008Z,44.36
2023-04-18T16:23:25.108Z,43.79
2023-04-18T16:28:27.068Z,43.51
2023-04-18T16:33:30.757Z,46.63
2023-04-18T16:38:32.949Z,45.50
2023-04-18T16:43:37.866Z,47.08
2023-04-18T16:48:41.727Z,48.75
2023-04-18T16:53:44.497Z,49.03
2023-04-18T16:58:46.759Z,49.10
2023-04-18T17:03:50.286Z,51.16
2023-04-18T17:08:53.471Z,50.53
2023-04-18T17:13:55.410Z,50.97
2023-04-18T17:18:58.728Z,51.03
2023-04-18T17:24:03.569Z,52.31
2023-04-18T17:29:05.725Z,52.16
2023-04-18T17:34:09.045Z,51.60
2023-04-18T17:39:11.095Z,53.36
2023-04-18T17:44:13.060Z,54.12
2023-04-18T17:49:16.776Z,55.37
2023-04-18T17:54:18.789Z,56.37
2023-04-18T17:59:20.913Z,56.67
2023-04-18T18:04:26.517Z,58.05
2023-04-18T18:09:28.759Z,59.25
2023-04-18T18:14:30.850Z,58.35
2023-04-18T18:19:38.679Z,59.71
2023-04-18T18:24:40.816Z,60.34
2023-04-18T18:29:42.835Z,61.58
2023-04-18T18:34:46.276Z,62.81
2023-04-18T18:39:48.322Z,63.27
2023-04-18T18:44:50.518Z,64.37
2023-04-18T18:49:53.854Z,63.83
2023-04-18T18:54:56.033Z,63.99
2023-04-18T18:59:58.020Z,64.59
2023-04-18T19:05:01.402Z,64.30
2023-04-18T19:10:04.604Z,65.22
2023-04-18T19:15:07.842Z,63.71
2023-04-18T19:20:11.258Z,64.05
2023-04-18T19:25:13.234Z,63.57
2023-04-18T19:30:15.376Z,64.54
2023-04-18T19:35:18.731Z,67.01
2023-04-18T19:40:20.763Z,69.24
2023-04-18T19:45:22.741Z,71.91
2023-04-18T19:50:26.304Z,74.63
2023-04-18T19:55:28.371Z,76.18
2023-04-18T20:00:30.417Z,77.72
2023-04-18T20:05:33.786Z,79.76
2023-04-18T20:10:37.347Z,78.89
2023-04-18T20:15:39.588Z,80.78
2023-04-18T20:20:43.033Z,80.48
2023-04-18T20:25:44.970Z,81.07
2023-04-18T20:30:47.911Z,81.07
2023-04-18T20:35:51.383Z,81.49
2023-04-18T20:40:54.185Z,81.30
2023-04-18T20:45:58.590Z,81.19
2023-04-18T20:51:01.936Z,80.92
2023-04-18T20:56:04.114Z,82.32
2023-04-18T21:01:06.973Z,80.97
2023-04-18T21:06:10.544Z,81.18
2023-04-18T21:11:12.551Z,81.61
2023-04-18T21:16:14.808Z,79.38
2023-04-18T21:21:18.223Z,80.39
2023-04-18T21:26:20.203Z,81.02
2023-04-18T21:31:22.190Z,82.29
2023-04-18T21:36:27.376Z,80.88
2023-04-18T21:41:29.536Z,81.43
2023-04-18T21:46:31.507Z,81.92
2023-04-18T21:51:34.839Z,82.77
2023-04-18T21:56:36.839Z,82.17
2023-04-18T22:01:39.063Z,84.04
2023-04-18T22:06:42.384Z,85.63
2023-04-18T22:11:44.306Z,86.35
2023-04-18T22:16:46.300Z,87.21
2023-04-18T22:21:49.640Z,87.77
2023-04-18T22:26:51.715Z,90.35
2023-04-18T22:31:53.643Z,90.65
2023-04-18T22:36:57.028Z,91.04
2023-04-18T22:41:58.953Z,91.21
2023-04-18T22:47:01.353Z,90.74
2023-04-18T22:52:06.126Z,91.39
2023-04-18T22:57:08.170Z,90.41
2023-04-18T23:02:10.676Z,91.84
2023-04-18T23:07:14.151Z,92.57
2023-04-18T23:12:16.240Z,93.94
2023-04-18T23:17:18.309Z,94.51
2023-04-18T23:22:23.975Z,94.38
2023-04-18T23:27:25.949Z,94.52
2023-04-18T23:32:27.927Z,95.13
2023-04-18T23:37:31.562Z,95.77
2023-04-18T23:42:37.011Z,94.54
2023-04-18T23:47:39.103Z,92.93
2023-04-18T23:52:42.448Z,90.09
2023-04-18T23:57:44.417Z,91.41
